Amherst, CO

1:54 PM MST on March 03, 2015 (GMT -0700)
Searle | Change Station
CLOSE
Current Station
Airport
Location: Ogallala,
Elevation: 3278 ft
Nearby Weather Stations

Elev 3278 ft 41.12 °N, 101.77 °W | Updated 19 minutes ago

Overcast
Overcast
27 °F
Feels Like 16 °F
N
13
Wind Variable Wind from North
Gusts 21 mph

Today
High -- | Low -- °F
--% Chance of Precip.
Yesterday
High -- | Low -- °F
Precip. -- in
6:19 AM 5:42 PM
Waxing Gibbous, 97% visible
Pressure 29.93 in
Visibility 10.0 miles
Clouds Overcast 3500 ft
Windchill 16 °F
Dew Point 11 °F
Humidity 51%
Rainfall 0.00 in
Snow Depth Not available.
UV 1 out of 12
Pollen .70 out of 12
Air Quality Not available.
Flu Activity Not available.
METAR KOGA 032035Z AUTO 36011G18KT 10SM OVC035 M03/M11 A2993 RMK AO2 T10271115

More Conditions Fewer Conditions

Pressure 29.93 in
Visibility 10.0 miles
Clouds Overcast 3500 ft
Windchill 16 °F
Dew Point 11 °F
Humidity 51%
Rainfall 0.00 in
Snow Depth Not available.
UV 1 out of 12
Pollen .70 out of 12
Air Quality Not available.
Flu Activity Not available.
METAR KOGA 032035Z AUTO 36011G18KT 10SM OVC035 M03/M11 A2993 RMK AO2 T10271115

More Conditions Fewer Conditions

10-Day Weather Forecast

Almanac

Astronomy

Mar. 03, 2015 Rise Set
Actual Time
Civil Twilight
Nautical Twilight
Astronomical Twilight
Moon
Length of Visible Light
Length of Day
Tomorrow will be .
, % of the Moon is Illuminated

Today's Extremes

State Highs State Lows

Community

WunderPhotos

Upload Photos

1,802,246 photos uploaded!

WunderBlogs® & News

Nearby

Air Quality

  Air Quality AQ Index Pollutant
Not available.

Snow Depth

Station Depth Elevation

Earthquake Activity

City Distance Mag. Time & Date
Minimum magnitude displayed is 2.5.

Coastal Water Temperatures

Place Temperature

Nearby Weather Stations